createdAt,value
2019-04-07T00:00:25.766Z,10.34
2019-04-07T00:01:26.330Z,10.34
2019-04-07T00:02:25.734Z,10.28
2019-04-07T00:03:25.729Z,10.41
2019-04-07T00:04:25.711Z,10.41
2019-04-07T00:05:25.717Z,10.35
2019-04-07T00:06:25.902Z,10.53
2019-04-07T00:07:26.285Z,10.35
2019-04-07T00:08:26.176Z,10.37
2019-04-07T00:09:25.855Z,10.41
2019-04-07T00:10:25.957Z,10.37
2019-04-07T00:11:25.645Z,10.48
2019-04-07T00:12:25.621Z,10.54
2019-04-07T00:13:25.915Z,10.46
2019-04-07T00:14:26.122Z,10.46
2019-04-07T00:15:25.924Z,10.40
2019-04-07T00:16:25.575Z,10.48
2019-04-07T00:17:26.227Z,10.48
2019-04-07T00:18:25.557Z,10.48
2019-04-07T00:19:25.551Z,10.40
2019-04-07T00:20:25.534Z,10.40
2019-04-07T00:21:25.523Z,10.38
2019-04-07T00:22:25.512Z,10.41
2019-04-07T00:23:25.526Z,10.42
2019-04-07T00:24:25.497Z,10.40
2019-04-07T00:25:25.480Z,10.44
2019-04-07T00:26:25.468Z,10.38
2019-04-07T00:27:25.725Z,10.31
2019-04-07T00:28:25.444Z,10.33
2019-04-07T00:29:25.450Z,10.37
2019-04-07T00:30:25.424Z,10.28
2019-04-07T00:31:25.411Z,10.41
2019-04-07T00:32:25.401Z,10.38
2019-04-07T00:33:25.641Z,10.34
2019-04-07T00:34:25.374Z,10.42
2019-04-07T00:35:30.453Z,10.46
2019-04-07T00:36:26.614Z,10.46
2019-04-07T00:37:25.342Z,10.44
2019-04-07T00:38:25.334Z,10.40
2019-04-07T00:39:25.922Z,10.53
2019-04-07T00:40:25.307Z,10.56
2019-04-07T00:41:25.318Z,10.54
2019-04-07T00:42:25.884Z,10.44
2019-04-07T00:43:25.272Z,10.49
2019-04-07T00:44:25.264Z,10.42
2019-04-07T00:45:25.252Z,10.56
2019-04-07T00:46:25.238Z,10.57
2019-04-07T00:47:25.262Z,10.54
2019-04-07T00:48:25.342Z,10.48
2019-04-07T00:49:25.766Z,10.56
2019-04-07T00:50:25.195Z,10.60
2019-04-07T00:51:25.601Z,10.64
2019-04-07T00:52:25.171Z,10.68
2019-04-07T00:53:25.446Z,10.63
2019-04-07T00:54:25.449Z,10.69
2019-04-07T00:55:25.428Z,10.64
2019-04-07T00:56:25.844Z,10.72
2019-04-07T00:57:25.357Z,10.72
2019-04-07T00:58:25.108Z,10.64
2019-04-07T00:59:25.465Z,10.64
2019-04-07T01:00:25.082Z,10.69
2019-04-07T01:01:25.072Z,10.69
2019-04-07T01:02:25.943Z,10.74
2019-04-07T01:03:25.046Z,10.71
2019-04-07T01:04:25.347Z,10.60
2019-04-07T01:05:35.427Z,10.68
2019-04-07T01:06:26.129Z,10.74
2019-04-07T01:07:25.595Z,10.64
2019-04-07T01:08:24.990Z,10.71
2019-04-07T01:09:24.978Z,10.61
2019-04-07T01:10:24.965Z,10.76
2019-04-07T01:11:24.974Z,10.74
2019-04-07T01:12:24.947Z,10.74
2019-04-07T01:13:24.938Z,10.81
2019-04-07T01:14:24.920Z,10.72
2019-04-07T01:15:25.192Z,10.69
2019-04-07T01:16:25.216Z,10.67
2019-04-07T01:17:24.915Z,10.69
2019-04-07T01:18:26.809Z,10.78
2019-04-07T01:19:25.297Z,10.71
2019-04-07T01:20:24.854Z,10.74
2019-04-07T01:21:24.993Z,10.79
2019-04-07T01:22:25.298Z,10.74
2019-04-07T01:23:24.841Z,10.79
2019-04-07T01:24:25.233Z,10.74
2019-04-07T01:25:24.801Z,10.72
2019-04-07T01:26:25.037Z,10.63
2019-04-07T01:27:24.773Z,10.69
2019-04-07T01:28:25.239Z,10.69
2019-04-07T01:29:24.766Z,10.67
2019-04-07T01:30:25.149Z,10.63
2019-04-07T01:31:25.088Z,10.64
2019-04-07T01:32:24.716Z,10.68
2019-04-07T01:33:24.722Z,10.71
2019-04-07T01:34:25.009Z,10.61
2019-04-07T01:35:24.710Z,10.68
2019-04-07T01:36:24.945Z,10.68
2019-04-07T01:37:25.242Z,10.71
2019-04-07T01:38:24.655Z,10.71
2019-04-07T01:39:24.640Z,10.61
2019-04-07T01:40:24.624Z,10.64
2019-04-07T01:41:25.256Z,10.64
2019-04-07T01:42:24.600Z,10.64
2019-04-07T01:43:25.104Z,10.76
2019-04-07T01:44:24.580Z,10.75
2019-04-07T01:45:24.591Z,10.64
2019-04-07T01:46:24.572Z,10.82
2019-04-07T01:47:24.568Z,10.76
2019-04-07T01:48:24.534Z,10.71
2019-04-07T01:49:24.846Z,10.69
2019-04-07T01:50:24.512Z,10.64
2019-04-07T01:51:24.640Z,10.71
2019-04-07T01:52:24.500Z,10.59
2019-04-07T01:53:24.568Z,10.57
2019-04-07T01:54:24.969Z,10.54
2019-04-07T01:55:24.598Z,10.54
2019-04-07T01:56:24.587Z,10.51
2019-04-07T01:57:24.675Z,10.57
2019-04-07T01:58:25.186Z,10.51
2019-04-07T01:59:24.451Z,10.41
2019-04-07T02:00:24.986Z,10.46
2019-04-07T02:01:24.389Z,10.46
2019-04-07T02:02:24.807Z,10.49
2019-04-07T02:03:24.365Z,10.48
2019-04-07T02:04:24.550Z,10.44
2019-04-07T02:05:24.354Z,10.38
2019-04-07T02:06:24.414Z,10.30
2019-04-07T02:07:24.635Z,10.41
2019-04-07T02:08:24.782Z,10.25
2019-04-07T02:09:24.820Z,10.26
2019-04-07T02:10:24.286Z,10.35
2019-04-07T02:11:24.294Z,10.26
2019-04-07T02:12:24.828Z,10.17
2019-04-07T02:13:24.249Z,10.26
2019-04-07T02:14:24.240Z,10.33
2019-04-07T02:15:24.235Z,10.28
2019-04-07T02:16:24.629Z,10.31
2019-04-07T02:17:24.233Z,10.33
2019-04-07T02:18:24.661Z,10.23
2019-04-07T02:19:24.195Z,10.22
2019-04-07T02:20:24.172Z,10.22
2019-04-07T02:21:24.902Z,10.22
2019-04-07T02:22:24.151Z,10.22
2019-04-07T02:23:24.158Z,10.20
2019-04-07T02:24:24.555Z,10.15
2019-04-07T02:25:24.115Z,10.10
2019-04-07T02:26:24.104Z,10.15
2019-04-07T02:27:24.096Z,10.17
2019-04-07T02:28:24.087Z,10.15
2019-04-07T02:29:24.679Z,10.09
2019-04-07T02:30:24.064Z,10.12
2019-04-07T02:31:24.951Z,10.13
2019-04-07T02:32:24.645Z,10.09
2019-04-07T02:33:24.342Z,10.02
2019-04-07T02:34:24.026Z,10.02
2019-04-07T02:35:24.653Z,9.97
2019-04-07T02:36:29.136Z,9.99
2019-04-07T02:37:24.978Z,9.87
2019-04-07T02:38:23.969Z,9.83
2019-04-07T02:39:24.848Z,9.74
2019-04-07T02:40:23.948Z,9.76
2019-04-07T02:41:24.132Z,9.62
2019-04-07T02:42:24.995Z,9.62
2019-04-07T02:43:24.204Z,9.44
2019-04-07T02:44:24.049Z,9.41
2019-04-07T02:45:24.105Z,9.28
2019-04-07T02:46:24.117Z,9.22
2019-04-07T02:47:24.477Z,9.21
2019-04-07T02:48:24.198Z,9.04
2019-04-07T02:49:24.158Z,9.03
2019-04-07T02:50:24.115Z,8.82
2019-04-07T02:51:24.323Z,8.82
2019-04-07T02:52:24.882Z,8.79
2019-04-07T02:53:24.555Z,8.70
2019-04-07T02:54:24.604Z,8.61
2019-04-07T02:55:23.898Z,8.52
2019-04-07T02:56:23.846Z,8.60
2019-04-07T02:57:24.267Z,8.45
2019-04-07T02:58:23.973Z,8.64
2019-04-07T02:59:23.750Z,8.78
2019-04-07T03:00:24.630Z,8.84
2019-04-07T03:01:24.088Z,9.04
2019-04-07T03:02:23.692Z,9.08
2019-04-07T03:03:23.685Z,9.23
2019-04-07T03:04:24.506Z,9.26
2019-04-07T03:05:24.145Z,9.32
2019-04-07T03:06:37.743Z,9.36
2019-04-07T03:07:25.060Z,9.40
2019-04-07T03:08:23.803Z,9.47
2019-04-07T03:09:23.615Z,9.48
2019-04-07T03:10:23.603Z,9.56
2019-04-07T03:11:24.695Z,9.55
2019-04-07T03:12:23.619Z,9.55
2019-04-07T03:13:24.418Z,9.56
2019-04-07T03:14:23.562Z,9.65
2019-04-07T03:15:23.550Z,9.65
2019-04-07T03:16:24.352Z,9.69
2019-04-07T03:17:23.554Z,9.65
2019-04-07T03:18:25.255Z,9.48
2019-04-07T03:19:23.637Z,9.54
2019-04-07T03:20:23.498Z,9.56
2019-04-07T03:21:23.485Z,9.66
2019-04-07T03:22:23.774Z,9.74
2019-04-07T03:23:24.537Z,9.69
2019-04-07T03:24:24.404Z,9.82
2019-04-07T03:25:24.001Z,9.92
2019-04-07T03:26:23.749Z,9.84
2019-04-07T03:27:24.023Z,10.05
2019-04-07T03:28:23.413Z,9.94
2019-04-07T03:29:23.625Z,10.07
2019-04-07T03:30:25.902Z,10.10
2019-04-07T03:31:24.034Z,10.01
2019-04-07T03:32:26.016Z,10.04
2019-04-07T03:33:25.581Z,9.99
2019-04-07T03:34:26.195Z,10.04
2019-04-07T03:35:25.927Z,10.05
2019-04-07T03:36:26.037Z,9.94
2019-04-07T03:37:35.110Z,9.99
2019-04-07T03:38:24.784Z,9.94
2019-04-07T03:39:23.283Z,9.89
2019-04-07T03:40:24.034Z,9.95
2019-04-07T03:41:23.795Z,9.89
2019-04-07T03:42:23.284Z,9.82
2019-04-07T03:43:23.929Z,9.76
2019-04-07T03:44:23.226Z,9.79
2019-04-07T03:45:23.338Z,9.73
2019-04-07T03:46:23.206Z,9.80
2019-04-07T03:47:23.472Z,9.79
2019-04-07T03:48:23.604Z,9.74
2019-04-07T03:49:23.497Z,9.77
2019-04-07T03:50:23.165Z,9.80
2019-04-07T03:51:23.154Z,9.80
2019-04-07T03:52:23.150Z,9.76
2019-04-07T03:53:24.282Z,9.82
2019-04-07T03:54:24.178Z,9.82
2019-04-07T03:55:23.107Z,9.87
2019-04-07T03:56:23.244Z,9.73
2019-04-07T03:57:24.111Z,9.72
2019-04-07T03:58:23.082Z,9.74
2019-04-07T03:59:23.083Z,9.73
2019-04-07T04:00:23.080Z,9.77
2019-04-07T04:01:23.998Z,9.74
2019-04-07T04:02:23.050Z,9.73
2019-04-07T04:03:23.022Z,9.65
2019-04-07T04:04:23.017Z,9.72
2019-04-07T04:05:24.195Z,9.62
2019-04-07T04:06:22.988Z,9.54
2019-04-07T04:07:29.887Z,9.61
2019-04-07T04:08:24.506Z,9.64
2019-04-07T04:09:22.958Z,9.46
2019-04-07T04:10:23.739Z,9.54
2019-04-07T04:11:23.604Z,9.56
2019-04-07T04:12:22.935Z,9.48
2019-04-07T04:13:23.160Z,9.37
2019-04-07T04:14:23.808Z,9.34
2019-04-07T04:15:22.893Z,9.44
2019-04-07T04:16:23.358Z,9.39
2019-04-07T04:17:23.074Z,9.29
2019-04-07T04:18:22.857Z,9.41
2019-04-07T04:19:22.846Z,9.37
2019-04-07T04:20:23.888Z,9.36
2019-04-07T04:21:22.828Z,9.36
2019-04-07T04:22:23.027Z,9.37
2019-04-07T04:23:22.821Z,9.28
2019-04-07T04:24:23.051Z,9.36
2019-04-07T04:25:23.174Z,9.46
2019-04-07T04:26:23.736Z,9.39
2019-04-07T04:27:23.674Z,9.37
2019-04-07T04:28:23.462Z,9.44
2019-04-07T04:29:23.365Z,9.47
2019-04-07T04:30:22.737Z,9.58
2019-04-07T04:31:22.740Z,9.47
2019-04-07T04:32:23.143Z,9.46
2019-04-07T04:33:23.505Z,9.50
2019-04-07T04:34:22.688Z,9.58
2019-04-07T04:35:22.695Z,9.61
2019-04-07T04:36:22.662Z,9.58
2019-04-07T04:37:36.058Z,9.56
2019-04-07T04:38:24.238Z,9.56
2019-04-07T04:39:22.910Z,9.50
2019-04-07T04:40:22.621Z,9.54
2019-04-07T04:41:23.125Z,9.50
2019-04-07T04:42:22.809Z,9.56
2019-04-07T04:43:23.297Z,9.43
2019-04-07T04:44:22.639Z,9.43
2019-04-07T04:45:22.574Z,9.41
2019-04-07T04:46:22.562Z,9.44
2019-04-07T04:47:23.211Z,9.34
2019-04-07T04:48:22.537Z,9.41
2019-04-07T04:49:23.263Z,9.26
2019-04-07T04:50:23.523Z,9.31
2019-04-07T04:51:22.507Z,9.23
2019-04-07T04:52:22.505Z,9.22
2019-04-07T04:53:22.677Z,9.14
2019-04-07T04:54:22.617Z,9.21
2019-04-07T04:55:22.461Z,9.08
2019-04-07T04:56:22.939Z,9.03
2019-04-07T04:57:23.127Z,9.06
2019-04-07T04:58:22.879Z,9.00
2019-04-07T04:59:22.642Z,8.95
2019-04-07T05:00:22.408Z,8.78
2019-04-07T05:01:23.005Z,8.74
2019-04-07T05:02:22.455Z,8.63
2019-04-07T05:03:22.372Z,8.58
2019-04-07T05:04:22.956Z,8.56
2019-04-07T05:05:23.183Z,8.42
2019-04-07T05:06:22.452Z,8.42
2019-04-07T05:07:22.999Z,8.30
2019-04-07T05:08:22.319Z,8.26
2019-04-07T05:09:23.156Z,8.19
2019-04-07T05:10:22.306Z,8.06
2019-04-07T05:11:22.305Z,8.01
2019-04-07T05:12:22.272Z,7.97
2019-04-07T05:13:22.483Z,7.98
2019-04-07T05:14:22.896Z,8.06
2019-04-07T05:15:22.829Z,7.91
2019-04-07T05:16:22.936Z,7.91
2019-04-07T05:17:22.244Z,7.87
2019-04-07T05:18:22.300Z,7.91
2019-04-07T05:19:22.486Z,8.05
2019-04-07T05:20:22.897Z,8.13
2019-04-07T05:21:22.337Z,8.15
2019-04-07T05:22:22.554Z,8.13
2019-04-07T05:23:22.170Z,8.23
2019-04-07T05:24:22.264Z,8.23
2019-04-07T05:25:22.279Z,8.23
2019-04-07T05:26:22.348Z,8.26
2019-04-07T05:27:22.118Z,8.24
2019-04-07T05:28:22.097Z,8.24
2019-04-07T05:29:22.102Z,8.30
2019-04-07T05:30:22.545Z,8.30
2019-04-07T05:31:22.473Z,8.28
2019-04-07T05:32:22.327Z,8.27
2019-04-07T05:33:22.044Z,8.42
2019-04-07T05:34:23.004Z,8.52
2019-04-07T05:35:22.548Z,8.64
2019-04-07T05:36:22.367Z,8.66
2019-04-07T05:37:22.087Z,8.64
2019-04-07T05:38:22.357Z,8.64
2019-04-07T05:39:21.985Z,8.74
2019-04-07T05:40:21.959Z,8.82
2019-04-07T05:41:21.976Z,8.84
2019-04-07T05:42:22.537Z,8.94
2019-04-07T05:43:22.678Z,8.99
2019-04-07T05:44:21.923Z,9.02
2019-04-07T05:45:22.645Z,9.16
2019-04-07T05:46:21.894Z,9.16
2019-04-07T05:47:21.897Z,9.46
2019-04-07T05:48:21.910Z,9.55
2019-04-07T05:49:24.074Z,9.65
2019-04-07T05:50:22.289Z,9.80
2019-04-07T05:51:22.065Z,9.95
2019-04-07T05:52:21.837Z,10.17
2019-04-07T05:53:21.831Z,10.28
2019-04-07T05:54:22.490Z,10.26
2019-04-07T05:55:24.093Z,10.35
2019-04-07T05:56:25.900Z,10.40
2019-04-07T05:57:22.791Z,10.59
2019-04-07T05:58:22.186Z,10.60
2019-04-07T05:59:22.154Z,10.61
2019-04-07T06:00:21.888Z,10.76
2019-04-07T06:01:23.334Z,10.89
2019-04-07T06:02:22.290Z,10.99
2019-04-07T06:03:21.948Z,11.23
2019-04-07T06:04:21.795Z,11.41
2019-04-07T06:05:22.136Z,11.65
2019-04-07T06:06:22.434Z,11.86
2019-04-07T06:07:25.801Z,12.00
2019-04-07T06:08:30.317Z,12.27
2019-04-07T06:09:23.091Z,12.46
2019-04-07T06:10:23.876Z,12.50
2019-04-07T06:11:21.719Z,12.72
2019-04-07T06:12:21.636Z,12.93
2019-04-07T06:13:21.580Z,12.93
2019-04-07T06:14:21.576Z,13.13
2019-04-07T06:15:22.317Z,13.27
2019-04-07T06:16:22.477Z,13.50
2019-04-07T06:17:24.196Z,13.63
2019-04-07T06:18:21.520Z,13.77
2019-04-07T06:19:21.569Z,13.97
2019-04-07T06:20:21.497Z,14.30
2019-04-07T06:21:22.164Z,14.58
2019-04-07T06:22:22.039Z,14.81
2019-04-07T06:23:24.264Z,14.79
2019-04-07T06:24:22.470Z,14.97
2019-04-07T06:25:21.437Z,14.94
2019-04-07T06:26:22.246Z,14.96
2019-04-07T06:27:21.751Z,15.17
2019-04-07T06:28:21.412Z,15.28
2019-04-07T06:29:24.681Z,15.57
2019-04-07T06:30:22.072Z,15.88
2019-04-07T06:31:24.303Z,15.97
2019-04-07T06:32:21.895Z,15.91
2019-04-07T06:33:22.090Z,15.92
2019-04-07T06:34:21.601Z,15.70
2019-04-07T06:35:21.346Z,15.55
2019-04-07T06:36:21.317Z,15.46
2019-04-07T06:37:25.799Z,15.42
2019-04-07T06:38:31.117Z,15.39
2019-04-07T06:39:23.054Z,15.62
2019-04-07T06:40:22.188Z,15.73
2019-04-07T06:41:21.776Z,15.91
2019-04-07T06:42:22.001Z,15.97
2019-04-07T06:43:21.238Z,16.10
2019-04-07T06:44:23.000Z,16.26
2019-04-07T06:45:22.736Z,16.39
2019-04-07T06:46:22.646Z,16.54
2019-04-07T06:47:21.465Z,16.47
2019-04-07T06:48:21.188Z,16.65
2019-04-07T06:49:21.865Z,16.76
2019-04-07T06:50:21.162Z,16.65
2019-04-07T06:51:21.481Z,16.93
2019-04-07T06:52:21.132Z,16.90
2019-04-07T06:53:21.169Z,16.78
2019-04-07T06:54:22.227Z,16.84
2019-04-07T06:55:22.639Z,16.84
2019-04-07T06:56:21.091Z,16.87
2019-04-07T06:57:21.077Z,16.60
2019-04-07T06:58:21.069Z,16.64
2019-04-07T06:59:21.074Z,16.96
2019-04-07T07:00:24.442Z,16.66
2019-04-07T07:01:25.191Z,16.64
2019-04-07T07:02:22.460Z,16.81
2019-04-07T07:03:21.513Z,16.86
2019-04-07T07:04:21.169Z,16.93
2019-04-07T07:05:21.337Z,17.15
2019-04-07T07:06:20.982Z,17.29
2019-04-07T07:07:21.546Z,17.52
2019-04-07T07:08:21.965Z,17.64
2019-04-07T07:09:21.316Z,17.48
2019-04-07T07:10:28.978Z,17.51
2019-04-07T07:11:28.619Z,17.29
2019-04-07T07:12:30.305Z,17.34
2019-04-07T07:13:29.911Z,17.30
2019-04-07T07:14:33.495Z,17.59
2019-04-07T07:15:21.892Z,17.76
2019-04-07T07:16:21.728Z,17.67
2019-04-07T07:17:21.523Z,17.26
2019-04-07T07:18:22.932Z,17.19
2019-04-07T07:19:24.467Z,17.29
2019-04-07T07:20:21.848Z,17.41
2019-04-07T07:21:24.068Z,17.51
2019-04-07T07:22:20.805Z,17.95
2019-04-07T07:23:20.802Z,17.87
2019-04-07T07:24:25.005Z,17.76
2019-04-07T07:25:21.355Z,17.79
2019-04-07T07:26:21.776Z,17.85
2019-04-07T07:27:20.819Z,17.98
2019-04-07T07:28:21.221Z,18.05
2019-04-07T07:29:21.368Z,18.38
2019-04-07T07:30:21.401Z,18.37
2019-04-07T07:31:25.255Z,18.20
2019-04-07T07:32:21.360Z,18.16
2019-04-07T07:33:21.343Z,18.05
2019-04-07T07:34:21.141Z,17.94
2019-04-07T07:35:20.670Z,18.00
2019-04-07T07:36:22.630Z,18.16
2019-04-07T07:37:20.636Z,18.33
2019-04-07T07:38:21.329Z,18.63
2019-04-07T07:39:22.876Z,18.58
2019-04-07T07:40:21.141Z,18.04
2019-04-07T07:41:22.391Z,18.34
2019-04-07T07:42:23.120Z,18.33
2019-04-07T07:43:21.069Z,18.88
2019-04-07T07:44:20.556Z,18.81
2019-04-07T07:45:20.545Z,18.78
2019-04-07T07:46:22.577Z,18.88
2019-04-07T07:47:22.439Z,18.88
2019-04-07T07:48:23.652Z,19.16
2019-04-07T07:49:21.543Z,19.08
2019-04-07T07:50:20.548Z,19.29
2019-04-07T07:51:20.475Z,19.34
2019-04-07T07:52:21.803Z,19.52
2019-04-07T07:53:23.693Z,19.55
2019-04-07T07:54:21.746Z,19.56
2019-04-07T07:55:20.827Z,19.69
2019-04-07T07:56:21.316Z,19.89
2019-04-07T07:57:23.495Z,19.33
2019-04-07T07:58:20.427Z,19.59
2019-04-07T07:59:20.406Z,19.67
2019-04-07T08:00:20.995Z,19.59
2019-04-07T08:01:21.068Z,19.63
2019-04-07T08:02:20.838Z,19.14
2019-04-07T08:03:22.670Z,18.95
2019-04-07T08:04:20.710Z,19.19
2019-04-07T08:05:20.352Z,19.45
2019-04-07T08:06:20.584Z,19.09
2019-04-07T08:07:20.387Z,19.34
2019-04-07T08:08:21.727Z,19.40
2019-04-07T08:09:23.674Z,19.49
2019-04-07T08:10:20.287Z,19.49
2019-04-07T08:11:20.497Z,19.71
2019-04-07T08:12:20.609Z,19.69
2019-04-07T08:13:20.236Z,19.67
2019-04-07T08:14:20.223Z,19.95
2019-04-07T08:15:22.879Z,20.14
2019-04-07T08:16:20.556Z,20.14
2019-04-07T08:17:20.210Z,20.22
2019-04-07T08:18:21.016Z,20.44
2019-04-07T08:19:20.174Z,20.25
2019-04-07T08:20:20.162Z,20.66
2019-04-07T08:21:20.571Z,20.69
2019-04-07T08:22:27.651Z,20.28
2019-04-07T08:23:21.982Z,20.34
2019-04-07T08:24:20.771Z,20.58
2019-04-07T08:25:22.442Z,20.52
2019-04-07T08:26:23.900Z,20.43
2019-04-07T08:27:20.551Z,20.51
2019-04-07T08:28:20.903Z,20.48
2019-04-07T08:29:20.344Z,20.47
2019-04-07T08:30:20.050Z,20.24
2019-04-07T08:31:21.422Z,20.59
2019-04-07T08:32:22.660Z,20.77
2019-04-07T08:33:21.016Z,20.25
2019-04-07T08:34:20.013Z,20.19
2019-04-07T08:35:20.026Z,20.37
2019-04-07T08:36:19.984Z,20.09
2019-04-07T08:37:20.035Z,19.74
2019-04-07T08:38:23.523Z,19.39
2019-04-07T08:39:25.584Z,19.31
2019-04-07T08:40:21.005Z,19.51
2019-04-07T08:41:19.934Z,19.86
2019-04-07T08:42:20.801Z,19.99
2019-04-07T08:43:22.552Z,20.19
2019-04-07T08:44:20.471Z,20.22
2019-04-07T08:45:19.890Z,19.64
2019-04-07T08:46:20.070Z,19.45
2019-04-07T08:47:22.109Z,19.85
2019-04-07T08:48:20.859Z,19.74
2019-04-07T08:49:23.618Z,20.00
2019-04-07T08:50:21.538Z,20.02
2019-04-07T08:51:20.045Z,19.85
2019-04-07T08:52:19.835Z,19.89
2019-04-07T08:53:19.802Z,19.76
2019-04-07T08:54:19.968Z,19.82
2019-04-07T08:55:20.429Z,20.10
2019-04-07T08:56:19.769Z,20.63
2019-04-07T08:57:19.760Z,20.81
2019-04-07T08:58:27.147Z,20.67
2019-04-07T08:59:20.743Z,20.40
2019-04-07T09:00:20.282Z,20.32
2019-04-07T09:01:21.072Z,20.07
2019-04-07T09:02:20.059Z,19.63
2019-04-07T09:03:19.720Z,20.03
2019-04-07T09:04:19.720Z,20.18
2019-04-07T09:05:23.077Z,20.72
2019-04-07T09:06:20.919Z,21.15
2019-04-07T09:07:22.558Z,21.57
2019-04-07T09:08:20.392Z,21.37
2019-04-07T09:09:31.186Z,20.81
2019-04-07T09:10:21.584Z,21.02
2019-04-07T09:11:21.647Z,21.11
2019-04-07T09:12:19.600Z,21.18
2019-04-07T09:13:19.757Z,20.88
2019-04-07T09:14:20.249Z,21.18
2019-04-07T09:15:19.567Z,20.81
2019-04-07T09:16:19.993Z,20.67
2019-04-07T09:17:30.712Z,20.81
2019-04-07T09:18:20.538Z,20.80
2019-04-07T09:19:20.303Z,21.05
2019-04-07T09:20:20.040Z,21.29
2019-04-07T09:21:20.703Z,20.74
2019-04-07T09:22:22.170Z,20.84
2019-04-07T09:23:20.131Z,20.97
2019-04-07T09:24:19.590Z,21.24
2019-04-07T09:25:20.334Z,21.52
2019-04-07T09:26:21.154Z,21.70
2019-04-07T09:27:23.363Z,21.64
2019-04-07T09:28:22.151Z,21.52
2019-04-07T09:29:19.421Z,20.80
2019-04-07T09:30:19.667Z,20.74
2019-04-07T09:31:19.632Z,20.90
2019-04-07T09:32:19.391Z,20.67
2019-04-07T09:33:19.382Z,20.55
2019-04-07T09:34:21.178Z,20.63
2019-04-07T09:35:22.765Z,20.58
2019-04-07T09:36:19.460Z,20.11
2019-04-07T09:37:22.023Z,20.66
2019-04-07T09:38:19.325Z,21.05
2019-04-07T09:39:19.318Z,20.92
2019-04-07T09:40:20.091Z,20.75
2019-04-07T09:41:23.152Z,20.93
2019-04-07T09:42:24.382Z,21.43
2019-04-07T09:43:20.269Z,20.97
2019-04-07T09:44:19.791Z,20.84
2019-04-07T09:45:19.585Z,20.50
2019-04-07T09:46:20.151Z,20.80
2019-04-07T09:47:19.633Z,21.09
2019-04-07T09:48:21.796Z,21.24
2019-04-07T09:49:21.251Z,21.02
2019-04-07T09:50:19.770Z,20.77
2019-04-07T09:51:19.739Z,20.52
2019-04-07T09:52:19.189Z,20.36
2019-04-07T09:53:19.725Z,20.29
2019-04-07T09:54:22.177Z,20.52
2019-04-07T09:55:19.144Z,20.36
2019-04-07T09:56:19.160Z,20.22
2019-04-07T09:57:19.131Z,20.32
2019-04-07T09:58:19.305Z,20.50
2019-04-07T09:59:19.540Z,20.52
2019-04-07T10:00:21.634Z,20.82
2019-04-07T10:01:20.767Z,20.50
2019-04-07T10:02:19.628Z,20.69
2019-04-07T10:03:19.302Z,20.69
2019-04-07T10:04:19.068Z,20.95
2019-04-07T10:05:19.039Z,21.21
2019-04-07T10:06:19.028Z,21.35
2019-04-07T10:07:19.326Z,21.27
2019-04-07T10:08:19.573Z,21.11
2019-04-07T10:09:19.691Z,21.03
2019-04-07T10:10:19.175Z,21.32
2019-04-07T10:11:19.658Z,21.11
2019-04-07T10:12:19.667Z,20.81
2019-04-07T10:13:18.955Z,20.99
2019-04-07T10:14:19.613Z,20.99
2019-04-07T10:15:18.949Z,20.50
2019-04-07T10:16:18.943Z,20.78
2019-04-07T10:17:18.913Z,20.97
2019-04-07T10:18:19.222Z,20.95
2019-04-07T10:19:18.893Z,20.99
2019-04-07T10:20:22.026Z,21.39
2019-04-07T10:21:19.608Z,21.50
2019-04-07T10:22:19.741Z,21.30
2019-04-07T10:23:19.619Z,21.21
2019-04-07T10:24:19.695Z,21.35
2019-04-07T10:25:18.824Z,21.29
2019-04-07T10:26:18.894Z,21.30
2019-04-07T10:27:18.824Z,21.25
2019-04-07T10:28:18.861Z,21.67
2019-04-07T10:29:18.794Z,21.29
2019-04-07T10:30:18.910Z,21.00
2019-04-07T10:31:20.753Z,21.06
2019-04-07T10:32:18.920Z,21.46
2019-04-07T10:33:19.055Z,21.89
2019-04-07T10:34:18.750Z,21.30
2019-04-07T10:35:19.008Z,21.48
2019-04-07T10:36:19.404Z,21.25
2019-04-07T10:37:18.858Z,21.55
2019-04-07T10:38:18.964Z,21.92
2019-04-07T10:39:18.716Z,21.80
2019-04-07T10:40:21.227Z,21.14
2019-04-07T10:41:18.697Z,21.27
2019-04-07T10:42:18.993Z,21.55
2019-04-07T10:43:18.643Z,22.04
2019-04-07T10:44:19.433Z,22.33
2019-04-07T10:45:18.625Z,22.48
2019-04-07T10:46:18.631Z,22.11
2019-04-07T10:47:19.301Z,22.30
2019-04-07T10:48:19.097Z,22.35
2019-04-07T10:49:19.146Z,22.23
2019-04-07T10:50:18.568Z,22.44
2019-04-07T10:51:18.560Z,22.39
2019-04-07T10:52:19.660Z,22.15
2019-04-07T10:53:19.465Z,22.11
2019-04-07T10:54:18.524Z,22.26
2019-04-07T10:55:18.520Z,22.35
2019-04-07T10:56:18.806Z,22.32
2019-04-07T10:57:18.862Z,22.22
2019-04-07T10:58:18.496Z,22.53
2019-04-07T10:59:18.473Z,22.30
2019-04-07T11:00:19.263Z,22.45
2019-04-07T11:01:19.395Z,22.38
2019-04-07T11:02:19.164Z,22.17
2019-04-07T11:03:18.631Z,22.07
2019-04-07T11:04:19.112Z,21.77
2019-04-07T11:05:18.638Z,22.11
2019-04-07T11:06:19.103Z,21.95
2019-04-07T11:07:18.989Z,21.93
2019-04-07T11:08:18.378Z,21.91
2019-04-07T11:09:18.370Z,21.93
2019-04-07T11:10:29.733Z,22.15
2019-04-07T11:11:20.189Z,21.91
2019-04-07T11:12:18.335Z,21.42
2019-04-07T11:13:18.577Z,21.24
2019-04-07T11:14:18.505Z,20.96
2019-04-07T11:15:18.462Z,21.22
2019-04-07T11:16:18.573Z,21.58
2019-04-07T11:17:18.285Z,21.51
2019-04-07T11:18:19.018Z,21.69
2019-04-07T11:19:18.264Z,21.62
2019-04-07T11:20:18.258Z,21.42
2019-04-07T11:21:18.246Z,21.37
2019-04-07T11:22:18.786Z,21.29
2019-04-07T11:23:18.222Z,21.02
2019-04-07T11:24:18.750Z,20.70
2019-04-07T11:25:18.385Z,20.36
2019-04-07T11:26:18.189Z,19.99
2019-04-07T11:27:19.044Z,19.56
2019-04-07T11:28:18.188Z,19.47
2019-04-07T11:29:18.159Z,19.18
2019-04-07T11:30:18.183Z,18.92
2019-04-07T11:31:18.776Z,18.92
2019-04-07T11:32:18.130Z,18.90
2019-04-07T11:33:18.304Z,18.88
2019-04-07T11:34:18.124Z,18.86
2019-04-07T11:35:18.200Z,18.75
2019-04-07T11:36:21.275Z,18.80
2019-04-07T11:37:18.907Z,18.83
2019-04-07T11:38:19.693Z,18.80
2019-04-07T11:39:18.826Z,18.65
2019-04-07T11:40:18.247Z,18.59
2019-04-07T11:41:21.666Z,18.66
2019-04-07T11:42:19.726Z,18.71
2019-04-07T11:43:18.002Z,18.84
2019-04-07T11:44:20.155Z,18.92
2019-04-07T11:45:17.986Z,18.89
2019-04-07T11:46:18.764Z,18.62
2019-04-07T11:47:18.583Z,18.59
2019-04-07T11:48:18.040Z,18.52
2019-04-07T11:49:18.237Z,18.47
2019-04-07T11:50:18.825Z,18.60
2019-04-07T11:51:18.494Z,18.63
2019-04-07T11:52:18.009Z,18.74
2019-04-07T11:53:17.891Z,18.84
2019-04-07T11:54:18.234Z,18.90
2019-04-07T11:55:18.416Z,18.98
2019-04-07T11:56:17.865Z,19.00
2019-04-07T11:57:17.846Z,19.12
2019-04-07T11:58:26.009Z,18.99
2019-04-07T11:59:20.325Z,19.11
2019-04-07T12:00:18.386Z,19.14
2019-04-07T12:01:18.608Z,19.09
2019-04-07T12:02:19.778Z,18.95
2019-04-07T12:03:18.220Z,19.00
2019-04-07T12:04:18.521Z,19.12
2019-04-07T12:05:17.761Z,19.16
2019-04-07T12:06:18.103Z,19.14
2019-04-07T12:07:20.335Z,19.12
2019-04-07T12:08:17.725Z,18.98
2019-04-07T12:09:17.716Z,18.78
2019-04-07T12:10:17.935Z,18.88
2019-04-07T12:11:17.994Z,19.00
2019-04-07T12:12:18.228Z,19.14
2019-04-07T12:13:17.671Z,19.16
2019-04-07T12:14:18.075Z,19.40
2019-04-07T12:15:22.072Z,19.39
2019-04-07T12:16:18.655Z,19.40
2019-04-07T12:17:17.779Z,19.15
2019-04-07T12:18:18.967Z,19.14
2019-04-07T12:19:18.488Z,19.31
2019-04-07T12:20:17.664Z,19.29
2019-04-07T12:21:22.646Z,19.27
2019-04-07T12:22:18.593Z,19.29
2019-04-07T12:23:22.890Z,19.24
2019-04-07T12:24:18.945Z,19.22
2019-04-07T12:25:17.543Z,19.36
2019-04-07T12:26:18.160Z,19.21
2019-04-07T12:27:20.351Z,19.19
2019-04-07T12:28:19.071Z,19.21
2019-04-07T12:29:17.878Z,19.22
2019-04-07T12:30:18.276Z,19.21
2019-04-07T12:31:17.496Z,19.27
2019-04-07T12:32:18.107Z,19.22
2019-04-07T12:33:17.897Z,19.00
2019-04-07T12:34:17.861Z,19.02
2019-04-07T12:35:19.229Z,19.14
2019-04-07T12:36:18.346Z,19.11
2019-04-07T12:37:17.591Z,19.15
2019-04-07T12:38:17.673Z,19.16
2019-04-07T12:39:18.912Z,19.21
2019-04-07T12:40:20.846Z,19.22
2019-04-07T12:41:21.601Z,19.33
2019-04-07T12:42:17.845Z,19.31
2019-04-07T12:43:17.442Z,19.18
2019-04-07T12:44:17.333Z,19.02
2019-04-07T12:45:18.020Z,18.88
2019-04-07T12:46:17.725Z,18.77
2019-04-07T12:47:18.110Z,18.88
2019-04-07T12:48:17.873Z,18.81
2019-04-07T12:49:17.296Z,18.90
2019-04-07T12:50:18.846Z,18.84
2019-04-07T12:51:17.576Z,18.71
2019-04-07T12:52:17.428Z,18.71
2019-04-07T12:53:17.236Z,18.66
2019-04-07T12:54:17.918Z,18.71
2019-04-07T12:55:18.038Z,18.68
2019-04-07T12:56:17.993Z,18.65
2019-04-07T12:57:17.192Z,18.53
2019-04-07T12:58:17.203Z,18.34